sensor_id;sensor_type;location;lat;lon;timestamp;P1;durP1;ratioP1;P2;durP2;ratioP2
78834;SDS011;68187;42.682;23.352;2023-04-25T00:00:43;5.88;;;2.70;;
78834;SDS011;68187;42.682;23.352;2023-04-25T00:03:09;5.20;;;2.58;;
78834;SDS011;68187;42.682;23.352;2023-04-25T00:05:36;6.15;;;3.00;;
78834;SDS011;68187;42.682;23.352;2023-04-25T00:08:05;5.15;;;2.22;;
78834;SDS011;68187;42.682;23.352;2023-04-25T00:10:32;6.25;;;4.00;;
78834;SDS011;68187;42.682;23.352;2023-04-25T00:12:58;5.57;;;2.65;;
78834;SDS011;68187;42.682;23.352;2023-04-25T00:15:27;6.32;;;3.05;;
78834;SDS011;68187;42.682;23.352;2023-04-25T00:17:55;6.32;;;3.55;;
78834;SDS011;68187;42.682;23.352;2023-04-25T00:20:22;4.90;;;2.65;;
78834;SDS011;68187;42.682;23.352;2023-04-25T00:22:50;5.65;;;3.08;;
78834;SDS011;68187;42.682;23.352;2023-04-25T00:25:19;5.13;;;2.72;;
78834;SDS011;68187;42.682;23.352;2023-04-25T00:27:46;8.25;;;3.38;;
78834;SDS011;68187;42.682;23.352;2023-04-25T00:30:13;6.78;;;4.00;;
78834;SDS011;68187;42.682;23.352;2023-04-25T00:32:40;7.45;;;4.70;;
78834;SDS011;68187;42.682;23.352;2023-04-25T00:35:07;6.68;;;3.55;;
78834;SDS011;68187;42.682;23.352;2023-04-25T00:37:35;8.10;;;3.40;;
78834;SDS011;68187;42.682;23.352;2023-04-25T00:40:02;5.55;;;2.90;;
78834;SDS011;68187;42.682;23.352;2023-04-25T00:42:34;6.05;;;3.28;;
78834;SDS011;68187;42.682;23.352;2023-04-25T00:45:02;7.68;;;3.58;;
78834;SDS011;68187;42.682;23.352;2023-04-25T00:47:32;7.90;;;3.75;;
78834;SDS011;68187;42.682;23.352;2023-04-25T00:49:59;7.07;;;3.92;;
78834;SDS011;68187;42.682;23.352;2023-04-25T00:52:26;5.47;;;3.20;;
78834;SDS011;68187;42.682;23.352;2023-04-25T00:54:53;10.82;;;3.85;;
78834;SDS011;68187;42.682;23.352;2023-04-25T00:57:20;6.30;;;3.40;;
78834;SDS011;68187;42.682;23.352;2023-04-25T00:59:48;7.75;;;3.03;;
78834;SDS011;68187;42.682;23.352;2023-04-25T01:02:17;7.72;;;2.13;;
78834;SDS011;68187;42.682;23.352;2023-04-25T01:04:44;5.68;;;2.90;;
78834;SDS011;68187;42.682;23.352;2023-04-25T01:07:11;6.90;;;3.38;;
78834;SDS011;68187;42.682;23.352;2023-04-25T01:09:38;6.20;;;3.72;;
78834;SDS011;68187;42.682;23.352;2023-04-25T01:12:05;7.82;;;4.10;;
78834;SDS011;68187;42.682;23.352;2023-04-25T01:14:32;7.28;;;3.92;;
78834;SDS011;68187;42.682;23.352;2023-04-25T01:17:00;6.55;;;3.42;;
78834;SDS011;68187;42.682;23.352;2023-04-25T01:19:27;6.90;;;3.35;;
78834;SDS011;68187;42.682;23.352;2023-04-25T01:21:56;6.82;;;3.70;;
78834;SDS011;68187;42.682;23.352;2023-04-25T01:24:23;6.13;;;3.55;;
78834;SDS011;68187;42.682;23.352;2023-04-25T01:26:51;6.78;;;3.70;;
78834;SDS011;68187;42.682;23.352;2023-04-25T01:29:18;7.57;;;3.17;;
78834;SDS011;68187;42.682;23.352;2023-04-25T01:31:46;7.13;;;3.22;;
78834;SDS011;68187;42.682;23.352;2023-04-25T01:34:13;8.15;;;5.43;;
78834;SDS011;68187;42.682;23.352;2023-04-25T01:36:39;7.03;;;5.00;;
78834;SDS011;68187;42.682;23.352;2023-04-25T01:39:08;6.22;;;3.03;;
78834;SDS011;68187;42.682;23.352;2023-04-25T01:41:35;6.85;;;3.47;;
78834;SDS011;68187;42.682;23.352;2023-04-25T01:44:02;6.38;;;2.92;;
78834;SDS011;68187;42.682;23.352;2023-04-25T01:46:30;7.10;;;3.22;;
78834;SDS011;68187;42.682;23.352;2023-04-25T01:48:56;7.25;;;3.35;;
78834;SDS011;68187;42.682;23.352;2023-04-25T01:51:23;9.90;;;3.60;;
78834;SDS011;68187;42.682;23.352;2023-04-25T01:53:50;6.75;;;4.13;;
78834;SDS011;68187;42.682;23.352;2023-04-25T01:56:18;7.43;;;3.88;;
78834;SDS011;68187;42.682;23.352;2023-04-25T01:58:45;7.05;;;3.70;;
78834;SDS011;68187;42.682;23.352;2023-04-25T02:01:12;6.03;;;2.78;;
78834;SDS011;68187;42.682;23.352;2023-04-25T02:03:39;7.00;;;2.80;;
78834;SDS011;68187;42.682;23.352;2023-04-25T02:06:06;6.90;;;4.00;;
78834;SDS011;68187;42.682;23.352;2023-04-25T02:08:33;6.70;;;3.00;;
78834;SDS011;68187;42.682;23.352;2023-04-25T02:10:59;6.53;;;3.42;;
78834;SDS011;68187;42.682;23.352;2023-04-25T02:13:29;8.13;;;3.22;;
78834;SDS011;68187;42.682;23.352;2023-04-25T02:15:56;6.15;;;3.65;;
78834;SDS011;68187;42.682;23.352;2023-04-25T02:18:23;7.18;;;2.92;;
78834;SDS011;68187;42.682;23.352;2023-04-25T02:20:51;6.30;;;2.95;;
78834;SDS011;68187;42.682;23.352;2023-04-25T02:23:18;7.05;;;3.60;;
78834;SDS011;68187;42.682;23.352;2023-04-25T02:25:44;9.48;;;3.83;;
78834;SDS011;68187;42.682;23.352;2023-04-25T02:28:11;7.18;;;4.15;;
78834;SDS011;68187;42.682;23.352;2023-04-25T02:30:39;6.82;;;3.40;;
78834;SDS011;68187;42.682;23.352;2023-04-25T02:33:06;9.27;;;4.30;;
78834;SDS011;68187;42.682;23.352;2023-04-25T02:35:33;7.63;;;3.67;;
78834;SDS011;68187;42.682;23.352;2023-04-25T02:38:00;6.40;;;3.65;;
78834;SDS011;68187;42.682;23.352;2023-04-25T02:40:26;9.55;;;3.65;;
78834;SDS011;68187;42.682;23.352;2023-04-25T02:42:53;7.93;;;4.28;;
78834;SDS011;68187;42.682;23.352;2023-04-25T02:45:20;6.93;;;3.65;;
78834;SDS011;68187;42.682;23.352;2023-04-25T02:47:48;6.75;;;3.75;;
78834;SDS011;68187;42.682;23.352;2023-04-25T02:50:15;6.75;;;3.70;;
78834;SDS011;68187;42.682;23.352;2023-04-25T02:52:43;7.93;;;4.40;;
78834;SDS011;68187;42.682;23.352;2023-04-25T02:55:10;8.02;;;4.32;;
78834;SDS011;68187;42.682;23.352;2023-04-25T02:57:38;7.68;;;3.97;;
78834;SDS011;68187;42.682;23.352;2023-04-25T03:00:05;8.90;;;5.05;;
78834;SDS011;68187;42.682;23.352;2023-04-25T03:02:33;7.43;;;4.00;;
78834;SDS011;68187;42.682;23.352;2023-04-25T03:05:01;7.57;;;3.38;;
78834;SDS011;68187;42.682;23.352;2023-04-25T03:07:28;6.82;;;3.70;;
78834;SDS011;68187;42.682;23.352;2023-04-25T03:09:55;7.72;;;3.75;;
78834;SDS011;68187;42.682;23.352;2023-04-25T03:12:22;7.57;;;3.70;;
78834;SDS011;68187;42.682;23.352;2023-04-25T03:14:48;7.25;;;3.95;;
78834;SDS011;68187;42.682;23.352;2023-04-25T03:17:15;7.05;;;3.50;;
78834;SDS011;68187;42.682;23.352;2023-04-25T03:19:42;9.02;;;3.85;;
78834;SDS011;68187;42.682;23.352;2023-04-25T03:22:10;7.55;;;3.22;;
78834;SDS011;68187;42.682;23.352;2023-04-25T03:24:37;8.57;;;3.83;;
78834;SDS011;68187;42.682;23.352;2023-04-25T03:27:04;7.55;;;4.18;;
78834;SDS011;68187;42.682;23.352;2023-04-25T03:29:30;6.50;;;3.83;;
78834;SDS011;68187;42.682;23.352;2023-04-25T03:31:57;7.88;;;4.40;;
78834;SDS011;68187;42.682;23.352;2023-04-25T03:34:24;7.43;;;4.32;;
78834;SDS011;68187;42.682;23.352;2023-04-25T03:36:51;8.05;;;4.63;;
78834;SDS011;68187;42.682;23.352;2023-04-25T03:39:19;7.40;;;4.20;;
78834;SDS011;68187;42.682;23.352;2023-04-25T03:41:46;8.35;;;4.22;;
78834;SDS011;68187;42.682;23.352;2023-04-25T03:44:12;9.52;;;5.43;;
78834;SDS011;68187;42.682;23.352;2023-04-25T03:46:39;10.30;;;5.28;;
78834;SDS011;68187;42.682;23.352;2023-04-25T03:49:06;8.30;;;4.68;;
78834;SDS011;68187;42.682;23.352;2023-04-25T03:51:33;8.40;;;5.03;;
78834;SDS011;68187;42.682;23.352;2023-04-25T03:54:00;8.23;;;5.05;;
78834;SDS011;68187;42.682;23.352;2023-04-25T03:56:28;9.30;;;6.47;;
78834;SDS011;68187;42.682;23.352;2023-04-25T03:58:54;8.00;;;4.85;;
78834;SDS011;68187;42.682;23.352;2023-04-25T04:01:21;7.80;;;4.40;;
78834;SDS011;68187;42.682;23.352;2023-04-25T04:03:48;6.80;;;4.07;;
78834;SDS011;68187;42.682;23.352;2023-04-25T04:06:16;8.30;;;4.57;;
78834;SDS011;68187;42.682;23.352;2023-04-25T04:08:43;8.48;;;6.10;;
78834;SDS011;68187;42.682;23.352;2023-04-25T04:11:10;7.75;;;4.03;;
78834;SDS011;68187;42.682;23.352;2023-04-25T04:13:38;8.23;;;5.40;;
78834;SDS011;68187;42.682;23.352;2023-04-25T04:16:07;7.82;;;4.72;;
78834;SDS011;68187;42.682;23.352;2023-04-25T04:18:34;10.07;;;5.85;;
78834;SDS011;68187;42.682;23.352;2023-04-25T04:21:01;10.20;;;6.25;;
78834;SDS011;68187;42.682;23.352;2023-04-25T04:23:27;10.63;;;6.72;;
78834;SDS011;68187;42.682;23.352;2023-04-25T04:25:54;10.48;;;6.70;;
78834;SDS011;68187;42.682;23.352;2023-04-25T04:28:21;10.32;;;6.47;;
78834;SDS011;68187;42.682;23.352;2023-04-25T04:30:49;10.88;;;5.90;;
78834;SDS011;68187;42.682;23.352;2023-04-25T04:33:17;10.18;;;6.18;;
78834;SDS011;68187;42.682;23.352;2023-04-25T04:35:45;10.38;;;6.32;;
78834;SDS011;68187;42.682;23.352;2023-04-25T04:38:12;10.25;;;6.65;;
78834;SDS011;68187;42.682;23.352;2023-04-25T04:40:40;12.55;;;5.78;;
78834;SDS011;68187;42.682;23.352;2023-04-25T04:43:08;9.98;;;5.88;;
78834;SDS011;68187;42.682;23.352;2023-04-25T04:45:35;11.48;;;8.10;;
78834;SDS011;68187;42.682;23.352;2023-04-25T04:48:05;10.38;;;7.07;;
78834;SDS011;68187;42.682;23.352;2023-04-25T04:50:32;10.68;;;7.15;;
78834;SDS011;68187;42.682;23.352;2023-04-25T04:52:59;12.82;;;7.38;;
78834;SDS011;68187;42.682;23.352;2023-04-25T04:55:25;11.57;;;7.40;;
78834;SDS011;68187;42.682;23.352;2023-04-25T04:57:52;11.95;;;7.82;;
78834;SDS011;68187;42.682;23.352;2023-04-25T05:00:19;12.32;;;7.18;;
78834;SDS011;68187;42.682;23.352;2023-04-25T05:02:47;12.20;;;7.45;;
78834;SDS011;68187;42.682;23.352;2023-04-25T05:05:15;11.82;;;7.63;;
78834;SDS011;68187;42.682;23.352;2023-04-25T05:07:42;12.40;;;7.68;;
78834;SDS011;68187;42.682;23.352;2023-04-25T05:10:08;13.60;;;7.90;;
78834;SDS011;68187;42.682;23.352;2023-04-25T05:12:36;13.75;;;7.93;;
78834;SDS011;68187;42.682;23.352;2023-04-25T05:15:03;13.45;;;8.35;;
78834;SDS011;68187;42.682;23.352;2023-04-25T05:17:30;13.88;;;8.27;;
78834;SDS011;68187;42.682;23.352;2023-04-25T05:19:57;12.38;;;8.13;;
78834;SDS011;68187;42.682;23.352;2023-04-25T05:22:25;11.98;;;8.43;;
78834;SDS011;68187;42.682;23.352;2023-04-25T05:24:52;11.07;;;7.47;;
78834;SDS011;68187;42.682;23.352;2023-04-25T05:27:19;12.75;;;8.02;;
78834;SDS011;68187;42.682;23.352;2023-04-25T05:29:46;13.20;;;7.43;;
78834;SDS011;68187;42.682;23.352;2023-04-25T05:32:13;11.13;;;7.15;;
78834;SDS011;68187;42.682;23.352;2023-04-25T05:34:40;12.07;;;7.53;;
78834;SDS011;68187;42.682;23.352;2023-04-25T05:37:06;11.00;;;8.43;;
78834;SDS011;68187;42.682;23.352;2023-04-25T05:39:35;12.18;;;8.43;;
78834;SDS011;68187;42.682;23.352;2023-04-25T05:42:02;10.30;;;6.65;;
78834;SDS011;68187;42.682;23.352;2023-04-25T05:44:29;9.73;;;6.93;;
78834;SDS011;68187;42.682;23.352;2023-04-25T05:46:56;11.45;;;6.70;;
78834;SDS011;68187;42.682;23.352;2023-04-25T05:49:23;9.63;;;5.35;;
78834;SDS011;68187;42.682;23.352;2023-04-25T05:51:50;9.65;;;5.70;;
78834;SDS011;68187;42.682;23.352;2023-04-25T05:54:16;10.15;;;6.88;;
78834;SDS011;68187;42.682;23.352;2023-04-25T05:56:45;11.98;;;6.15;;
78834;SDS011;68187;42.682;23.352;2023-04-25T05:59:11;9.32;;;6.55;;
78834;SDS011;68187;42.682;23.352;2023-04-25T06:01:38;7.63;;;4.28;;
78834;SDS011;68187;42.682;23.352;2023-04-25T06:04:05;10.68;;;4.97;;
78834;SDS011;68187;42.682;23.352;2023-04-25T06:06:32;8.88;;;4.75;;
78834;SDS011;68187;42.682;23.352;2023-04-25T06:08:58;7.93;;;4.47;;
78834;SDS011;68187;42.682;23.352;2023-04-25T06:11:25;9.15;;;4.35;;
78834;SDS011;68187;42.682;23.352;2023-04-25T06:13:53;7.70;;;3.88;;
78834;SDS011;68187;42.682;23.352;2023-04-25T06:16:20;8.82;;;4.95;;
78834;SDS011;68187;42.682;23.352;2023-04-25T06:18:47;8.25;;;4.82;;
78834;SDS011;68187;42.682;23.352;2023-04-25T06:21:14;9.20;;;5.32;;
78834;SDS011;68187;42.682;23.352;2023-04-25T06:23:40;10.05;;;5.22;;
78834;SDS011;68187;42.682;23.352;2023-04-25T06:26:07;9.40;;;5.47;;
78834;SDS011;68187;42.682;23.352;2023-04-25T06:28:34;10.88;;;7.28;;
78834;SDS011;68187;42.682;23.352;2023-04-25T06:31:02;9.63;;;5.55;;
78834;SDS011;68187;42.682;23.352;2023-04-25T06:33:28;10.63;;;6.00;;
78834;SDS011;68187;42.682;23.352;2023-04-25T06:35:55;7.10;;;4.22;;
78834;SDS011;68187;42.682;23.352;2023-04-25T06:38:22;7.82;;;5.00;;
78834;SDS011;68187;42.682;23.352;2023-04-25T06:40:49;8.52;;;5.50;;
78834;SDS011;68187;42.682;23.352;2023-04-25T06:43:16;8.48;;;4.22;;
78834;SDS011;68187;42.682;23.352;2023-04-25T06:45:43;8.65;;;5.47;;
78834;SDS011;68187;42.682;23.352;2023-04-25T06:48:11;7.55;;;4.47;;
78834;SDS011;68187;42.682;23.352;2023-04-25T06:50:37;7.68;;;4.10;;
78834;SDS011;68187;42.682;23.352;2023-04-25T06:53:04;8.23;;;4.15;;
78834;SDS011;68187;42.682;23.352;2023-04-25T06:55:31;8.00;;;4.95;;
78834;SDS011;68187;42.682;23.352;2023-04-25T06:57:58;9.10;;;4.60;;
78834;SDS011;68187;42.682;23.352;2023-04-25T07:00:25;7.75;;;4.22;;
78834;SDS011;68187;42.682;23.352;2023-04-25T07:02:53;9.93;;;4.82;;
78834;SDS011;68187;42.682;23.352;2023-04-25T07:05:21;7.40;;;4.05;;
78834;SDS011;68187;42.682;23.352;2023-04-25T07:07:48;8.52;;;4.22;;
78834;SDS011;68187;42.682;23.352;2023-04-25T07:10:15;12.38;;;7.03;;
78834;SDS011;68187;42.682;23.352;2023-04-25T07:12:41;8.80;;;4.45;;
78834;SDS011;68187;42.682;23.352;2023-04-25T07:15:08;9.00;;;5.88;;
78834;SDS011;68187;42.682;23.352;2023-04-25T07:17:36;8.43;;;5.72;;
78834;SDS011;68187;42.682;23.352;2023-04-25T07:20:03;10.20;;;5.82;;
78834;SDS011;68187;42.682;23.352;2023-04-25T07:22:34;9.13;;;5.35;;
78834;SDS011;68187;42.682;23.352;2023-04-25T07:25:00;9.85;;;5.18;;
78834;SDS011;68187;42.682;23.352;2023-04-25T07:27:29;10.32;;;5.22;;
78834;SDS011;68187;42.682;23.352;2023-04-25T07:29:56;8.18;;;5.45;;
78834;SDS011;68187;42.682;23.352;2023-04-25T07:32:23;8.98;;;5.38;;
78834;SDS011;68187;42.682;23.352;2023-04-25T07:34:50;9.48;;;5.18;;
78834;SDS011;68187;42.682;23.352;2023-04-25T07:37:17;10.05;;;5.80;;
78834;SDS011;68187;42.682;23.352;2023-04-25T07:39:45;9.75;;;4.75;;
78834;SDS011;68187;42.682;23.352;2023-04-25T07:42:12;9.05;;;4.05;;
78834;SDS011;68187;42.682;23.352;2023-04-25T07:44:39;9.50;;;4.97;;
78834;SDS011;68187;42.682;23.352;2023-04-25T07:47:07;10.07;;;5.05;;
78834;SDS011;68187;42.682;23.352;2023-04-25T07:49:35;8.68;;;5.07;;
78834;SDS011;68187;42.682;23.352;2023-04-25T07:52:02;9.48;;;5.03;;
78834;SDS011;68187;42.682;23.352;2023-04-25T07:54:30;11.75;;;6.15;;
78834;SDS011;68187;42.682;23.352;2023-04-25T07:56:58;8.63;;;5.38;;
78834;SDS011;68187;42.682;23.352;2023-04-25T07:59:25;10.77;;;5.28;;
78834;SDS011;68187;42.682;23.352;2023-04-25T08:01:52;8.23;;;5.47;;
78834;SDS011;68187;42.682;23.352;2023-04-25T08:04:19;10.45;;;5.25;;
78834;SDS011;68187;42.682;23.352;2023-04-25T08:06:46;7.85;;;5.10;;
78834;SDS011;68187;42.682;23.352;2023-04-25T08:09:13;8.23;;;4.82;;
78834;SDS011;68187;42.682;23.352;2023-04-25T08:11:40;9.05;;;5.38;;
78834;SDS011;68187;42.682;23.352;2023-04-25T08:14:09;9.38;;;5.13;;
78834;SDS011;68187;42.682;23.352;2023-04-25T08:16:36;11.35;;;4.03;;
78834;SDS011;68187;42.682;23.352;2023-04-25T08:19:03;12.63;;;4.97;;
78834;SDS011;68187;42.682;23.352;2023-04-25T08:21:30;6.93;;;4.07;;
78834;SDS011;68187;42.682;23.352;2023-04-25T08:23:57;8.80;;;5.15;;
78834;SDS011;68187;42.682;23.352;2023-04-25T08:26:24;8.25;;;3.88;;
78834;SDS011;68187;42.682;23.352;2023-04-25T08:28:51;9.70;;;4.03;;
78834;SDS011;68187;42.682;23.352;2023-04-25T08:31:19;9.02;;;4.20;;
78834;SDS011;68187;42.682;23.352;2023-04-25T08:33:46;5.60;;;3.33;;
78834;SDS011;68187;42.682;23.352;2023-04-25T08:36:14;8.02;;;3.75;;
78834;SDS011;68187;42.682;23.352;2023-04-25T08:38:41;10.35;;;3.42;;
78834;SDS011;68187;42.682;23.352;2023-04-25T08:41:08;8.20;;;4.22;;
78834;SDS011;68187;42.682;23.352;2023-04-25T08:43:37;7.55;;;4.20;;
78834;SDS011;68187;42.682;23.352;2023-04-25T08:46:04;6.15;;;3.40;;
78834;SDS011;68187;42.682;23.352;2023-04-25T08:48:33;8.10;;;4.30;;
78834;SDS011;68187;42.682;23.352;2023-04-25T08:51:01;13.57;;;7.25;;
78834;SDS011;68187;42.682;23.352;2023-04-25T08:53:30;15.52;;;7.72;;
78834;SDS011;68187;42.682;23.352;2023-04-25T08:55:58;14.27;;;7.05;;
78834;SDS011;68187;42.682;23.352;2023-04-25T08:58:27;16.95;;;7.03;;
78834;SDS011;68187;42.682;23.352;2023-04-25T09:00:54;12.75;;;7.95;;
78834;SDS011;68187;42.682;23.352;2023-04-25T09:03:21;16.60;;;8.75;;
78834;SDS011;68187;42.682;23.352;2023-04-25T09:05:49;14.90;;;9.40;;
78834;SDS011;68187;42.682;23.352;2023-04-25T09:08:17;13.25;;;8.23;;
78834;SDS011;68187;42.682;23.352;2023-04-25T09:10:44;10.88;;;6.35;;
78834;SDS011;68187;42.682;23.352;2023-04-25T09:13:12;9.05;;;6.28;;
78834;SDS011;68187;42.682;23.352;2023-04-25T09:15:46;8.18;;;5.53;;
78834;SDS011;68187;42.682;23.352;2023-04-25T09:18:21;7.45;;;4.82;;
78834;SDS011;68187;42.682;23.352;2023-04-25T09:20:50;9.02;;;4.75;;
78834;SDS011;68187;42.682;23.352;2023-04-25T09:23:18;8.73;;;6.20;;
78834;SDS011;68187;42.682;23.352;2023-04-25T09:25:46;7.78;;;4.13;;
78834;SDS011;68187;42.682;23.352;2023-04-25T09:28:14;7.80;;;5.13;;
78834;SDS011;68187;42.682;23.352;2023-04-25T09:30:41;6.65;;;4.80;;
78834;SDS011;68187;42.682;23.352;2023-04-25T09:33:09;8.07;;;4.13;;
78834;SDS011;68187;42.682;23.352;2023-04-25T09:35:38;7.88;;;3.58;;
78834;SDS011;68187;42.682;23.352;2023-04-25T09:38:10;7.82;;;3.65;;
78834;SDS011;68187;42.682;23.352;2023-04-25T09:40:39;5.82;;;2.35;;
78834;SDS011;68187;42.682;23.352;2023-04-25T09:43:10;7.38;;;4.15;;
78834;SDS011;68187;42.682;23.352;2023-04-25T09:45:44;8.20;;;3.75;;
78834;SDS011;68187;42.682;23.352;2023-04-25T09:48:15;8.02;;;4.50;;
78834;SDS011;68187;42.682;23.352;2023-04-25T09:50:43;6.72;;;3.38;;
78834;SDS011;68187;42.682;23.352;2023-04-25T09:53:11;6.57;;;3.17;;
78834;SDS011;68187;42.682;23.352;2023-04-25T09:55:38;6.00;;;3.42;;
78834;SDS011;68187;42.682;23.352;2023-04-25T09:58:08;7.25;;;3.70;;
78834;SDS011;68187;42.682;23.352;2023-04-25T10:00:37;6.20;;;3.20;;
78834;SDS011;68187;42.682;23.352;2023-04-25T10:03:05;7.50;;;3.33;;
78834;SDS011;68187;42.682;23.352;2023-04-25T10:05:32;6.78;;;3.30;;
78834;SDS011;68187;42.682;23.352;2023-04-25T10:08:02;7.38;;;4.00;;
78834;SDS011;68187;42.682;23.352;2023-04-25T10:10:31;7.15;;;3.65;;
78834;SDS011;68187;42.682;23.352;2023-04-25T10:13:02;6.95;;;3.17;;
78834;SDS011;68187;42.682;23.352;2023-04-25T10:15:30;7.15;;;4.28;;
78834;SDS011;68187;42.682;23.352;2023-04-25T10:17:58;7.30;;;3.90;;
78834;SDS011;68187;42.682;23.352;2023-04-25T10:20:25;5.97;;;3.30;;
78834;SDS011;68187;42.682;23.352;2023-04-25T10:22:51;6.20;;;3.53;;
78834;SDS011;68187;42.682;23.352;2023-04-25T10:25:22;5.68;;;1.50;;
78834;SDS011;68187;42.682;23.352;2023-04-25T10:27:51;3.60;;;1.45;;
78834;SDS011;68187;42.682;23.352;2023-04-25T10:30:18;5.68;;;2.20;;
78834;SDS011;68187;42.682;23.352;2023-04-25T10:32:45;4.18;;;1.42;;
78834;SDS011;68187;42.682;23.352;2023-04-25T10:35:15;3.22;;;1.08;;
78834;SDS011;68187;42.682;23.352;2023-04-25T10:40:40;4.43;;;1.15;;
78834;SDS011;68187;42.682;23.352;2023-04-25T10:46:16;3.33;;;1.50;;
78834;SDS011;68187;42.682;23.352;2023-04-25T10:48:47;5.38;;;1.20;;
78834;SDS011;68187;42.682;23.352;2023-04-25T10:53:43;4.75;;;1.77;;
78834;SDS011;68187;42.682;23.352;2023-04-25T10:56:11;3.30;;;1.83;;
78834;SDS011;68187;42.682;23.352;2023-04-25T10:58:43;3.03;;;1.67;;
78834;SDS011;68187;42.682;23.352;2023-04-25T11:01:10;4.60;;;2.42;;
78834;SDS011;68187;42.682;23.352;2023-04-25T11:03:40;2.88;;;1.13;;
78834;SDS011;68187;42.682;23.352;2023-04-25T11:06:10;3.50;;;1.17;;
78834;SDS011;68187;42.682;23.352;2023-04-25T11:11:14;7.00;;;1.02;;
78834;SDS011;68187;42.682;23.352;2023-04-25T11:13:42;5.72;;;1.13;;
78834;SDS011;68187;42.682;23.352;2023-04-25T11:16:10;4.05;;;0.77;;
78834;SDS011;68187;42.682;23.352;2023-04-25T11:18:37;4.22;;;1.05;;
78834;SDS011;68187;42.682;23.352;2023-04-25T11:21:04;7.85;;;3.22;;
78834;SDS011;68187;42.682;23.352;2023-04-25T11:23:31;4.22;;;0.90;;
78834;SDS011;68187;42.682;23.352;2023-04-25T11:25:58;4.35;;;2.20;;
78834;SDS011;68187;42.682;23.352;2023-04-25T11:28:26;3.60;;;1.75;;
78834;SDS011;68187;42.682;23.352;2023-04-25T11:30:54;5.13;;;1.35;;
78834;SDS011;68187;42.682;23.352;2023-04-25T11:33:23;4.60;;;0.63;;
78834;SDS011;68187;42.682;23.352;2023-04-25T11:35:50;5.47;;;1.85;;
78834;SDS011;68187;42.682;23.352;2023-04-25T11:38:19;3.75;;;1.15;;
78834;SDS011;68187;42.682;23.352;2023-04-25T11:40:49;3.63;;;0.85;;
78834;SDS011;68187;42.682;23.352;2023-04-25T11:43:16;4.55;;;0.93;;
78834;SDS011;68187;42.682;23.352;2023-04-25T11:45:46;3.95;;;1.10;;
78834;SDS011;68187;42.682;23.352;2023-04-25T11:48:15;2.33;;;0.75;;
78834;SDS011;68187;42.682;23.352;2023-04-25T11:50:42;2.70;;;0.80;;
78834;SDS011;68187;42.682;23.352;2023-04-25T11:53:10;3.25;;;0.70;;
78834;SDS011;68187;42.682;23.352;2023-04-25T11:55:37;2.55;;;1.00;;
78834;SDS011;68187;42.682;23.352;2023-04-25T11:58:05;2.95;;;1.63;;
78834;SDS011;68187;42.682;23.352;2023-04-25T12:00:33;3.17;;;1.25;;
78834;SDS011;68187;42.682;23.352;2023-04-25T12:03:00;2.53;;;0.80;;
78834;SDS011;68187;42.682;23.352;2023-04-25T12:05:29;3.08;;;1.55;;
78834;SDS011;68187;42.682;23.352;2023-04-25T12:07:58;3.95;;;0.88;;
78834;SDS011;68187;42.682;23.352;2023-04-25T12:10:36;1.83;;;0.60;;
78834;SDS011;68187;42.682;23.352;2023-04-25T12:13:17;2.25;;;1.30;;
78834;SDS011;68187;42.682;23.352;2023-04-25T12:15:44;2.33;;;1.02;;
78834;SDS011;68187;42.682;23.352;2023-04-25T12:18:11;3.60;;;1.25;;
78834;SDS011;68187;42.682;23.352;2023-04-25T12:20:39;2.85;;;0.85;;
78834;SDS011;68187;42.682;23.352;2023-04-25T12:23:07;3.55;;;1.67;;
78834;SDS011;68187;42.682;23.352;2023-04-25T12:25:36;2.35;;;0.82;;
78834;SDS011;68187;42.682;23.352;2023-04-25T12:28:11;2.70;;;1.00;;
78834;SDS011;68187;42.682;23.352;2023-04-25T12:30:54;3.15;;;1.00;;
78834;SDS011;68187;42.682;23.352;2023-04-25T12:33:22;3.78;;;0.98;;
78834;SDS011;68187;42.682;23.352;2023-04-25T12:35:51;3.10;;;0.85;;
78834;SDS011;68187;42.682;23.352;2023-04-25T12:38:22;3.05;;;0.85;;
78834;SDS011;68187;42.682;23.352;2023-04-25T12:40:50;7.72;;;1.08;;
78834;SDS011;68187;42.682;23.352;2023-04-25T12:43:17;9.90;;;1.75;;
78834;SDS011;68187;42.682;23.352;2023-04-25T12:45:44;4.97;;;1.42;;
78834;SDS011;68187;42.682;23.352;2023-04-25T12:48:11;6.28;;;1.45;;
78834;SDS011;68187;42.682;23.352;2023-04-25T12:50:38;4.78;;;1.20;;
78834;SDS011;68187;42.682;23.352;2023-04-25T12:53:06;3.40;;;1.52;;
78834;SDS011;68187;42.682;23.352;2023-04-25T12:55:32;3.10;;;1.00;;
78834;SDS011;68187;42.682;23.352;2023-04-25T12:57:59;3.80;;;1.23;;
78834;SDS011;68187;42.682;23.352;2023-04-25T13:00:26;6.15;;;1.65;;
78834;SDS011;68187;42.682;23.352;2023-04-25T13:02:53;3.45;;;1.25;;
78834;SDS011;68187;42.682;23.352;2023-04-25T13:05:19;3.08;;;1.23;;
78834;SDS011;68187;42.682;23.352;2023-04-25T13:07:46;2.65;;;1.10;;
78834;SDS011;68187;42.682;23.352;2023-04-25T13:10:14;4.38;;;1.30;;
78834;SDS011;68187;42.682;23.352;2023-04-25T13:12:41;5.53;;;1.48;;
78834;SDS011;68187;42.682;23.352;2023-04-25T13:15:08;5.20;;;1.40;;
78834;SDS011;68187;42.682;23.352;2023-04-25T13:17:36;4.68;;;1.85;;
78834;SDS011;68187;42.682;23.352;2023-04-25T13:20:03;4.70;;;1.48;;
78834;SDS011;68187;42.682;23.352;2023-04-25T13:22:31;5.57;;;1.48;;
78834;SDS011;68187;42.682;23.352;2023-04-25T13:24:58;4.90;;;1.42;;
78834;SDS011;68187;42.682;23.352;2023-04-25T13:27:26;4.88;;;1.48;;
78834;SDS011;68187;42.682;23.352;2023-04-25T13:29:53;9.32;;;1.63;;
78834;SDS011;68187;42.682;23.352;2023-04-25T13:32:19;4.40;;;1.83;;
78834;SDS011;68187;42.682;23.352;2023-04-25T13:34:46;3.65;;;1.50;;
78834;SDS011;68187;42.682;23.352;2023-04-25T13:37:13;4.75;;;2.33;;
78834;SDS011;68187;42.682;23.352;2023-04-25T13:39:40;5.80;;;2.05;;
78834;SDS011;68187;42.682;23.352;2023-04-25T13:42:07;5.38;;;1.90;;
78834;SDS011;68187;42.682;23.352;2023-04-25T13:44:35;6.53;;;2.20;;
78834;SDS011;68187;42.682;23.352;2023-04-25T13:47:02;5.60;;;1.88;;
78834;SDS011;68187;42.682;23.352;2023-04-25T13:49:29;4.28;;;1.40;;
78834;SDS011;68187;42.682;23.352;2023-04-25T13:51:55;6.10;;;1.67;;
78834;SDS011;68187;42.682;23.352;2023-04-25T13:54:22;6.53;;;2.47;;
78834;SDS011;68187;42.682;23.352;2023-04-25T13:56:49;7.40;;;1.73;;
78834;SDS011;68187;42.682;23.352;2023-04-25T13:59:17;4.78;;;1.17;;
78834;SDS011;68187;42.682;23.352;2023-04-25T14:01:45;5.05;;;1.85;;
78834;SDS011;68187;42.682;23.352;2023-04-25T14:04:11;4.78;;;2.55;;
78834;SDS011;68187;42.682;23.352;2023-04-25T14:06:38;4.15;;;1.67;;
78834;SDS011;68187;42.682;23.352;2023-04-25T14:09:05;8.32;;;1.67;;
78834;SDS011;68187;42.682;23.352;2023-04-25T14:11:36;5.53;;;2.22;;
78834;SDS011;68187;42.682;23.352;2023-04-25T14:14:03;4.45;;;2.33;;
78834;SDS011;68187;42.682;23.352;2023-04-25T14:16:30;4.63;;;1.70;;
78834;SDS011;68187;42.682;23.352;2023-04-25T14:18:58;4.97;;;1.10;;
78834;SDS011;68187;42.682;23.352;2023-04-25T14:21:26;3.85;;;1.75;;
78834;SDS011;68187;42.682;23.352;2023-04-25T14:23:53;3.53;;;1.00;;
78834;SDS011;68187;42.682;23.352;2023-04-25T14:26:19;3.08;;;0.88;;
78834;SDS011;68187;42.682;23.352;2023-04-25T14:28:46;5.97;;;1.23;;
78834;SDS011;68187;42.682;23.352;2023-04-25T14:31:13;3.90;;;1.80;;
78834;SDS011;68187;42.682;23.352;2023-04-25T14:33:40;4.88;;;1.30;;
78834;SDS011;68187;42.682;23.352;2023-04-25T14:36:09;3.78;;;1.48;;
78834;SDS011;68187;42.682;23.352;2023-04-25T14:38:36;3.38;;;1.80;;
78834;SDS011;68187;42.682;23.352;2023-04-25T14:41:03;3.85;;;1.17;;
78834;SDS011;68187;42.682;23.352;2023-04-25T14:43:30;3.58;;;1.73;;
78834;SDS011;68187;42.682;23.352;2023-04-25T14:45:56;3.10;;;1.80;;